createdAt,value
2022-12-09T04:20:25.050Z,9.60
2022-12-09T04:25:26.914Z,9.70
2022-12-09T04:30:29.313Z,10.10
2022-12-09T04:35:31.202Z,9.60
2022-12-09T04:40:33.268Z,10.38
2022-12-09T04:45:36.108Z,11.00
2022-12-09T04:50:40.295Z,9.50
2022-12-09T04:55:42.185Z,10.35
2022-12-09T05:00:44.335Z,10.23
2022-12-09T05:05:46.432Z,8.37
2022-12-09T05:10:48.582Z,9.80
2022-12-09T05:15:50.784Z,9.70
2022-12-09T05:20:53.429Z,10.77
2022-12-09T05:25:55.453Z,10.30
2022-12-09T05:31:04.833Z,10.05
2022-12-09T05:36:13.909Z,8.77
2022-12-09T05:41:16.639Z,9.52
2022-12-09T05:46:19.115Z,9.13
2022-12-09T05:51:23.818Z,10.43
2022-12-09T05:56:26.012Z,10.55
2022-12-09T06:01:28.675Z,10.45
2022-12-09T06:06:31.312Z,11.07
2022-12-09T06:11:33.497Z,10.25
2022-12-09T06:16:35.726Z,10.95
2022-12-09T06:21:41.616Z,9.90
2022-12-09T06:26:43.616Z,11.20
2022-12-09T06:31:45.624Z,10.35
2022-12-09T06:36:47.536Z,8.80
2022-12-09T06:41:49.729Z,9.68
2022-12-09T06:46:52.023Z,11.00
2022-12-09T06:51:54.057Z,11.13
2022-12-09T06:56:56.278Z,9.23
2022-12-09T07:01:58.820Z,10.63
2022-12-09T07:07:00.910Z,9.77
2022-12-09T07:12:03.001Z,11.27
2022-12-09T07:17:05.046Z,10.98
2022-12-09T07:22:07.504Z,10.73
2022-12-09T07:27:17.218Z,10.70
2022-12-09T07:32:21.380Z,10.07
2022-12-09T07:37:23.393Z,10.97
2022-12-09T07:42:25.282Z,9.32
2022-12-09T07:47:29.580Z,9.82
2022-12-09T07:52:31.884Z,10.50
2022-12-09T07:57:34.154Z,11.07
2022-12-09T08:02:36.143Z,11.03
2022-12-09T08:07:43.954Z,10.98
2022-12-09T08:12:46.735Z,10.32
2022-12-09T08:17:48.847Z,10.73
2022-12-09T08:22:51.158Z,11.37
2022-12-09T08:27:53.530Z,10.77
2022-12-09T08:32:55.735Z,11.95
2022-12-09T08:37:58.870Z,11.57
2022-12-09T08:43:01.167Z,11.13
2022-12-09T08:48:03.740Z,13.70
2022-12-09T08:53:06.032Z,15.35
2022-12-09T08:58:07.916Z,16.17
2022-12-09T09:03:10.297Z,17.27
2022-12-09T09:08:12.635Z,18.73
2022-12-09T09:13:14.946Z,20.10
2022-12-09T09:18:16.818Z,24.33
2022-12-09T09:23:19.039Z,24.42
2022-12-09T09:28:24.773Z,28.90
2022-12-09T09:33:29.841Z,26.58
2022-12-09T09:38:32.564Z,25.17
2022-12-09T09:43:37.674Z,28.23
2022-12-09T09:48:39.798Z,26.13
2022-12-09T09:53:41.858Z,29.43
2022-12-09T09:59:08.130Z,26.42
2022-12-09T10:04:28.910Z,26.08
2022-12-09T10:09:31.233Z,24.80
2022-12-09T10:14:57.046Z,24.17
2022-12-09T10:20:11.886Z,24.13
2022-12-09T10:25:25.014Z,22.27
2022-12-09T10:30:32.149Z,26.50
2022-12-09T10:35:38.360Z,22.83
2022-12-09T10:40:47.111Z,22.55
2022-12-09T10:46:17.399Z,24.02
2022-12-09T10:51:12.482Z,25.50
2022-12-09T10:56:19.465Z,24.40
2022-12-09T11:01:21.797Z,25.33
2022-12-09T11:06:24.689Z,29.65
2022-12-09T11:11:38.826Z,26.30
2022-12-09T11:16:40.921Z,26.15
2022-12-09T11:21:42.986Z,28.38
2022-12-09T11:26:45.214Z,29.48
2022-12-09T11:31:47.384Z,27.63
2022-12-09T11:36:51.288Z,28.47
2022-12-09T11:41:55.190Z,27.75
2022-12-09T11:46:59.519Z,28.70
2022-12-09T11:52:21.961Z,27.65
2022-12-09T11:57:23.758Z,27.08
2022-12-09T12:02:25.663Z,25.67
2022-12-09T12:07:35.196Z,27.10
2022-12-09T12:12:43.541Z,26.10
2022-12-09T12:17:55.854Z,24.48
2022-12-09T12:22:57.676Z,24.63
2022-12-09T12:28:05.351Z,25.17
2022-12-09T12:33:59.806Z,25.45
2022-12-09T12:38:43.210Z,21.25
2022-12-09T12:44:11.427Z,20.27
2022-12-09T12:49:25.380Z,20.65
2022-12-09T12:54:39.336Z,20.83
2022-12-09T12:59:41.190Z,20.75
2022-12-09T13:04:52.496Z,20.33
2022-12-09T13:10:03.553Z,21.75
2022-12-09T13:15:10.126Z,22.67
2022-12-09T13:20:15.267Z,21.05
2022-12-09T13:25:20.281Z,21.85
2022-12-09T13:30:23.727Z,22.38
2022-12-09T13:35:41.202Z,22.20
2022-12-09T13:40:43.019Z,21.35
2022-12-09T13:45:44.832Z,23.83
2022-12-09T13:50:49.806Z,21.52
2022-12-09T13:55:57.671Z,22.20
2022-12-09T14:01:04.699Z,21.27
2022-12-09T14:06:16.880Z,20.88
2022-12-09T14:11:37.242Z,21.65
2022-12-09T14:16:39.105Z,20.35
2022-12-09T14:21:40.927Z,21.65
2022-12-09T14:26:58.118Z,21.08
2022-12-09T14:32:03.440Z,19.02
2022-12-09T14:37:12.695Z,20.45
2022-12-09T14:42:43.820Z,18.77
2022-12-09T14:47:46.240Z,18.40
2022-12-09T14:52:53.949Z,16.63
2022-12-09T14:57:57.644Z,17.77
2022-12-09T15:08:31.895Z,20.25
2022-12-09T15:13:34.927Z,21.38
2022-12-09T15:18:39.253Z,19.30
2022-12-09T15:23:43.689Z,19.02
2022-12-09T15:28:49.537Z,21.02
2022-12-09T15:33:52.623Z,18.92
2022-12-09T15:38:54.434Z,18.45
2022-12-09T15:43:59.099Z,19.10
2022-12-09T15:49:01.202Z,18.60
2022-12-09T15:54:06.850Z,18.42
2022-12-09T15:59:11.473Z,18.60
2022-12-09T16:04:16.123Z,18.90
2022-12-09T16:09:19.234Z,17.17
2022-12-09T16:14:23.703Z,17.80
2022-12-09T16:19:29.075Z,15.75
2022-12-09T16:25:06.193Z,14.82
2022-12-09T16:29:58.309Z,13.13
2022-12-09T16:35:15.217Z,13.32
2022-12-09T16:40:23.302Z,13.70
2022-12-09T16:45:32.319Z,13.30
2022-12-09T16:50:37.372Z,13.38
2022-12-09T16:55:40.120Z,13.50
2022-12-09T17:00:42.020Z,13.20
2022-12-09T17:05:47.796Z,12.27
2022-12-09T17:10:49.915Z,12.57
2022-12-09T17:15:51.946Z,13.65
2022-12-09T17:21:10.038Z,12.40
2022-12-09T17:26:14.906Z,12.52
2022-12-09T17:31:20.646Z,11.98
2022-12-09T17:36:22.892Z,12.60
2022-12-09T17:41:24.720Z,12.98
2022-12-09T17:46:26.589Z,13.73
2022-12-09T17:51:35.398Z,12.52
2022-12-09T17:56:38.369Z,12.07
2022-12-09T18:01:40.368Z,13.43
2022-12-09T18:06:43.499Z,13.32
2022-12-09T18:16:48.051Z,11.52
2022-12-09T18:21:49.905Z,10.57
2022-12-09T18:26:51.754Z,10.73
2022-12-09T18:31:54.469Z,11.48
2022-12-09T18:36:56.476Z,11.45
2022-12-09T18:41:58.281Z,11.63
2022-12-09T18:47:00.090Z,11.27
2022-12-09T18:52:01.920Z,11.30
2022-12-09T18:57:03.762Z,12.07
2022-12-09T19:02:05.572Z,11.43
2022-12-09T19:07:07.414Z,12.48
2022-12-09T19:12:45.337Z,11.02
2022-12-09T19:17:31.478Z,12.98
2022-12-09T19:22:33.298Z,12.65
2022-12-09T19:27:35.082Z,12.63
2022-12-09T19:32:53.034Z,13.55
2022-12-09T19:38:00.963Z,13.75
2022-12-09T19:43:03.758Z,14.27
2022-12-09T19:48:05.618Z,13.18
2022-12-09T19:53:07.504Z,13.05
2022-12-09T19:58:09.374Z,13.70
2022-12-09T20:03:11.262Z,13.32
2022-12-09T20:08:13.149Z,14.05
2022-12-09T20:13:15.102Z,14.10
2022-12-09T20:18:17.062Z,13.20
2022-12-09T20:23:18.875Z,13.15
2022-12-09T20:28:20.741Z,12.13
2022-12-09T20:33:22.530Z,11.20
2022-12-09T20:38:24.658Z,12.02
2022-12-09T20:43:26.457Z,13.20
2022-12-09T20:48:28.237Z,12.95
2022-12-09T20:53:30.042Z,11.85
2022-12-09T20:58:31.847Z,13.68
2022-12-09T21:03:33.838Z,12.38
2022-12-09T21:08:36.019Z,14.63
2022-12-09T21:13:43.463Z,13.13
2022-12-09T21:18:45.792Z,14.05
2022-12-09T21:23:47.933Z,15.20
2022-12-09T21:28:50.117Z,16.13
2022-12-09T21:33:53.443Z,17.03
2022-12-09T21:38:55.580Z,16.98
2022-12-09T21:43:57.551Z,16.53
2022-12-09T21:49:03.697Z,15.77
2022-12-09T21:54:06.828Z,16.17
2022-12-09T21:59:10.090Z,17.60
2022-12-09T22:04:13.128Z,16.63
2022-12-09T22:14:16.662Z,17.70
2022-12-09T22:19:19.509Z,17.38
2022-12-09T22:24:21.325Z,17.33
2022-12-09T22:29:23.131Z,16.92
2022-12-09T22:34:25.031Z,16.05
2022-12-09T22:39:26.955Z,15.88
2022-12-09T22:44:28.776Z,15.32
2022-12-09T22:49:30.584Z,15.60
2022-12-09T22:54:32.436Z,15.10
2022-12-09T22:59:38.381Z,14.73
2022-12-09T23:04:43.275Z,16.42
2022-12-09T23:09:45.098Z,15.95
2022-12-09T23:14:46.914Z,15.05
2022-12-09T23:19:48.718Z,17.90
2022-12-09T23:24:50.538Z,16.58
2022-12-09T23:29:52.355Z,17.42
2022-12-09T23:34:55.682Z,16.60
2022-12-09T23:39:57.490Z,17.33
2022-12-09T23:44:59.322Z,16.85
2022-12-09T23:50:01.135Z,16.40
2022-12-09T23:55:04.704Z,18.10
